You are not logged in, Click here to log in
機場資訊:LIPZ Welcome to Taiwan Airways 台灣虛擬航空
ICAO: LIPZ Country: 義大利威尼斯以北 4.3海里(8.0公里;4.9英里) 的泰塞拉島(即義大利半島)
Latitude: 45.5053 Longitude: 12.3519
Total Arrivals: 3 Total Departures: 3
Latest Arrival: AZ1465 (LIRF-LIPZ)Arthur. Kung Latest Departure: OS528 (LIPZ-LOWW)Arthur. Kung
Scenery:
METAR : LIPZ 141820Z VRB02KT 4000 BR BKN030 18/16 Q1020 NOSIG

威尼斯-泰塞拉機場VCE